createdAt,value
2019-04-12T00:00:12.530Z,0
2019-04-12T00:01:11.077Z,0
2019-04-12T00:02:09.638Z,0
2019-04-12T00:03:08.206Z,0
2019-04-12T00:04:06.783Z,0
2019-04-12T00:05:05.672Z,0
2019-04-12T00:06:04.263Z,0
2019-04-12T00:07:03.077Z,0
2019-04-12T00:08:02.061Z,0
2019-04-12T00:09:00.274Z,0
2019-04-12T00:09:59.469Z,0
2019-04-12T00:10:57.676Z,0
2019-04-12T00:11:56.448Z,0
2019-04-12T00:12:55.094Z,0
2019-04-12T00:13:53.863Z,0
2019-04-12T00:14:52.436Z,0
2019-04-12T00:15:51.003Z,0
2019-04-12T00:16:49.534Z,0
2019-04-12T00:17:48.086Z,0
2019-04-12T00:18:46.610Z,0
2019-04-12T00:19:45.163Z,0
2019-04-12T00:20:44.610Z,0
2019-04-12T00:21:42.748Z,0
2019-04-12T00:22:41.113Z,0
2019-04-12T00:23:39.695Z,0
2019-04-12T00:24:38.315Z,0
2019-04-12T00:25:36.831Z,0
2019-04-12T00:26:35.393Z,0
2019-04-12T00:27:33.989Z,0
2019-04-12T00:28:32.593Z,0
2019-04-12T00:29:31.177Z,0
2019-04-12T00:30:29.743Z,0
2019-04-12T00:31:28.269Z,0
2019-04-12T00:32:26.821Z,0
2019-04-12T00:33:25.327Z,0
2019-04-12T00:34:24.137Z,0
2019-04-12T00:35:22.494Z,0
2019-04-12T00:36:22.407Z,0
2019-04-12T00:37:24.025Z,0
2019-04-12T00:38:18.380Z,0
2019-04-12T00:39:16.925Z,0
2019-04-12T00:40:15.505Z,0
2019-04-12T00:41:14.238Z,0
2019-04-12T00:42:12.790Z,0
2019-04-12T00:43:11.323Z,0
2019-04-12T00:44:09.957Z,0
2019-04-12T00:45:08.519Z,0
2019-04-12T00:46:07.079Z,0
2019-04-12T00:47:08.993Z,0
2019-04-12T00:48:04.256Z,0
2019-04-12T00:49:02.821Z,0
2019-04-12T00:50:01.355Z,0
2019-04-12T00:51:00.093Z,0
2019-04-12T00:51:58.684Z,0
2019-04-12T00:52:57.193Z,0
2019-04-12T00:53:55.773Z,0
2019-04-12T00:54:54.557Z,0
2019-04-12T00:55:53.137Z,0
2019-04-12T00:56:51.735Z,0
2019-04-12T01:00:30.460Z,0
2019-04-12T01:01:29.004Z,0
2019-04-12T01:02:27.566Z,0
2019-04-12T01:03:26.250Z,0
2019-04-12T01:04:24.826Z,0
2019-04-12T01:05:23.390Z,0
2019-04-12T01:06:22.050Z,0
2019-04-12T01:07:20.681Z,0
2019-04-12T01:08:21.094Z,0
2019-04-12T01:09:21.799Z,0
2019-04-12T01:10:16.333Z,0
2019-04-12T01:11:14.878Z,0
2019-04-12T01:12:13.600Z,0
2019-04-12T01:13:12.379Z,0
2019-04-12T01:14:10.940Z,0
2019-04-12T01:15:09.575Z,0
2019-04-12T01:29:39.990Z,0
2019-04-12T01:30:38.522Z,0
2019-04-12T01:31:37.083Z,0
2019-04-12T01:32:35.699Z,0
2019-04-12T01:33:34.373Z,0
2019-04-12T01:34:32.945Z,0
2019-04-12T01:35:31.571Z,0
2019-04-12T01:36:30.310Z,0
2019-04-12T01:37:28.880Z,0
2019-04-12T01:38:27.415Z,0
2019-04-12T01:39:25.959Z,0
2019-04-12T01:40:24.498Z,0
2019-04-12T01:41:23.060Z,0
2019-04-12T01:42:21.758Z,0
2019-04-12T01:43:20.667Z,0
2019-04-12T01:44:19.373Z,0
2019-04-12T01:45:17.857Z,0
2019-04-12T01:46:16.519Z,0
2019-04-12T01:47:15.075Z,0
2019-04-12T01:48:13.628Z,0
2019-04-12T01:49:12.171Z,0
2019-04-12T01:50:10.712Z,0
2019-04-12T01:51:09.321Z,0
2019-04-12T01:52:07.939Z,0
2019-04-12T01:53:06.643Z,0
2019-04-12T01:54:05.195Z,0
2019-04-12T01:55:08.788Z,0
2019-04-12T01:56:02.559Z,0
2019-04-12T01:57:01.121Z,0
2019-04-12T01:57:59.675Z,0
2019-04-12T01:58:58.205Z,0
2019-04-12T01:59:56.749Z,0
2019-04-12T02:00:55.293Z,0
2019-04-12T02:01:53.853Z,0
2019-04-12T02:02:52.435Z,0
2019-04-12T02:03:50.963Z,0
2019-04-12T02:04:49.604Z,0
2019-04-12T02:05:48.210Z,0
2019-04-12T02:06:46.774Z,0
2019-04-12T02:07:45.328Z,0
2019-04-12T02:08:44.114Z,0
2019-04-12T02:09:42.792Z,0
2019-04-12T02:10:41.345Z,0
2019-04-12T02:11:39.924Z,0
2019-04-12T02:12:38.490Z,0
2019-04-12T02:13:37.030Z,0
2019-04-12T02:14:35.586Z,0
2019-04-12T02:15:34.126Z,0
2019-04-12T02:16:32.679Z,0
2019-04-12T02:17:31.216Z,0
2019-04-12T02:18:29.824Z,0
2019-04-12T02:19:28.507Z,0
2019-04-12T02:20:27.080Z,0
2019-04-12T02:21:25.736Z,0
2019-04-12T02:22:24.397Z,0
2019-04-12T02:23:22.955Z,0
2019-04-12T02:24:21.510Z,0
2019-04-12T02:25:21.008Z,0
2019-04-12T02:26:18.626Z,0
2019-04-12T02:27:17.171Z,0
2019-04-12T02:28:15.731Z,0
2019-04-12T02:29:14.274Z,0
2019-04-12T02:30:12.835Z,0
2019-04-12T02:31:11.388Z,0
2019-04-12T02:32:09.923Z,0
2019-04-12T02:33:08.490Z,0
2019-04-12T02:34:07.008Z,0
2019-04-12T02:35:05.702Z,0
2019-04-12T02:36:04.337Z,0
2019-04-12T02:37:02.836Z,0
2019-04-12T02:38:01.477Z,0
2019-04-12T02:39:00.124Z,0
2019-04-12T02:39:58.727Z,0
2019-04-12T02:40:57.274Z,0
2019-04-12T02:41:55.964Z,0
2019-04-12T02:42:54.516Z,0
2019-04-12T02:43:53.068Z,0
2019-04-12T02:44:51.650Z,0
2019-04-12T02:45:50.208Z,0
2019-04-12T02:46:48.851Z,0
2019-04-12T02:47:47.295Z,0
2019-04-12T02:48:45.949Z,0
2019-04-12T02:49:44.615Z,0
2019-04-12T02:50:43.156Z,0
2019-04-12T02:51:41.763Z,0
2019-04-12T02:52:40.522Z,0
2019-04-12T02:53:39.062Z,0
2019-04-12T02:54:37.611Z,0
2019-04-12T02:55:38.101Z,0
2019-04-12T02:56:34.719Z,0
2019-04-12T02:57:33.253Z,0
2019-04-12T02:58:31.859Z,0
2019-04-12T02:59:30.370Z,0
2019-04-12T03:00:28.899Z,0
2019-04-12T03:01:27.618Z,0
2019-04-12T03:02:26.446Z,0
2019-04-12T03:03:25.032Z,0
2019-04-12T03:04:23.657Z,0
2019-04-12T03:07:04.098Z,0
2019-04-12T03:08:02.701Z,0
2019-04-12T03:09:01.290Z,0
2019-04-12T03:10:00.080Z,0
2019-04-12T03:10:58.771Z,0
2019-04-12T03:11:57.310Z,0
2019-04-12T03:12:55.872Z,0
2019-04-12T03:13:54.406Z,0
2019-04-12T03:14:53.016Z,0
2019-04-12T03:15:51.572Z,0
2019-04-12T03:19:33.310Z,0
2019-04-12T03:20:31.932Z,0
2019-04-12T03:35:46.532Z,0
2019-04-12T03:36:45.049Z,0
2019-04-12T03:37:43.631Z,0
2019-04-12T03:38:42.412Z,0
2019-04-12T03:39:40.987Z,0
2019-04-12T03:40:39.571Z,0
2019-04-12T03:41:38.223Z,0
2019-04-12T03:42:36.818Z,0
2019-04-12T03:43:35.362Z,0
2019-04-12T03:44:33.933Z,0
2019-04-12T03:45:32.475Z,0
2019-04-12T03:46:31.007Z,0
2019-04-12T03:47:29.618Z,0
2019-04-12T03:48:28.516Z,0
2019-04-12T03:49:27.111Z,0
2019-04-12T03:50:25.695Z,0
2019-04-12T03:51:24.391Z,0
2019-04-12T03:52:23.036Z,0
2019-04-12T03:53:21.593Z,0
2019-04-12T03:54:20.305Z,0
2019-04-12T03:55:18.859Z,0
2019-04-12T03:56:17.435Z,0
2019-04-12T03:57:16.253Z,0
2019-04-12T03:58:14.865Z,0
2019-04-12T03:59:13.437Z,0
2019-04-12T04:00:12.103Z,0
2019-04-12T04:01:10.703Z,0
2019-04-12T04:02:09.259Z,0
2019-04-12T04:03:07.959Z,0
2019-04-12T04:04:06.624Z,0
2019-04-12T04:05:05.172Z,0
2019-04-12T04:06:03.866Z,0
2019-04-12T04:07:02.661Z,0
2019-04-12T04:08:01.295Z,0
2019-04-12T04:09:00.095Z,0
2019-04-12T04:11:23.059Z,0
2019-04-12T04:12:21.944Z,0
2019-04-12T04:13:20.640Z,0
2019-04-12T04:14:19.211Z,0
2019-04-12T04:15:17.836Z,0
2019-04-12T04:16:16.594Z,0
2019-04-12T04:17:15.165Z,0
2019-04-12T04:18:13.973Z,0
2019-04-12T04:19:12.729Z,0
2019-04-12T04:20:11.402Z,0
2019-04-12T04:21:10.123Z,0
2019-04-12T04:22:08.664Z,0
2019-04-12T04:23:07.624Z,0
2019-04-12T04:24:06.329Z,0
2019-04-12T04:25:04.911Z,0
2019-04-12T04:26:03.439Z,0
2019-04-12T04:27:02.284Z,0
2019-04-12T04:40:29.274Z,0
2019-04-12T04:41:27.933Z,0
2019-04-12T04:42:26.566Z,0
2019-04-12T04:43:25.112Z,0
2019-04-12T04:44:23.646Z,0
2019-04-12T04:45:22.240Z,0
2019-04-12T04:46:20.863Z,0
2019-04-12T04:47:19.404Z,0
2019-04-12T04:48:18.128Z,0
2019-04-12T04:49:16.688Z,5
2019-04-12T04:50:15.218Z,5
2019-04-12T04:51:13.882Z,5
2019-04-12T04:52:12.457Z,5
2019-04-12T04:53:11.044Z,5
2019-04-12T04:54:09.808Z,5
2019-04-12T04:55:08.525Z,5
2019-04-12T04:56:07.128Z,5
2019-04-12T04:57:05.658Z,5
2019-04-12T04:58:04.214Z,5
2019-04-12T04:59:02.745Z,5
2019-04-12T05:01:42.733Z,5
2019-04-12T05:02:41.378Z,5
2019-04-12T05:03:39.976Z,10
2019-04-12T05:04:38.633Z,10
2019-04-12T05:05:37.164Z,10
2019-04-12T05:06:35.844Z,10
2019-04-12T05:07:34.527Z,10
2019-04-12T05:08:33.075Z,10
2019-04-12T05:22:32.095Z,20
2019-04-12T05:25:47.461Z,25
2019-04-12T05:26:46.217Z,25
2019-04-12T05:27:44.855Z,25
2019-04-12T05:28:43.373Z,25
2019-04-12T05:31:25.366Z,30
2019-04-12T05:34:46.723Z,35
2019-04-12T05:35:45.307Z,35
2019-04-12T05:36:44.124Z,35
2019-04-12T05:37:42.847Z,35
2019-04-12T05:38:41.504Z,40
2019-04-12T05:52:20.813Z,55
2019-04-12T05:53:19.296Z,55
2019-04-12T05:54:17.798Z,60
2019-04-12T05:55:16.352Z,60
2019-04-12T05:56:15.027Z,60
2019-04-12T05:57:13.964Z,60
2019-04-12T05:58:13.341Z,65
2019-04-12T05:59:11.331Z,65
2019-04-12T06:00:11.907Z,65
2019-04-12T06:03:18.014Z,70
2019-04-12T06:04:16.622Z,75
2019-04-12T06:05:15.187Z,75
2019-04-12T06:06:13.750Z,75
2019-04-12T06:07:12.320Z,80
2019-04-12T06:08:10.850Z,80
2019-04-12T06:09:09.380Z,80
2019-04-12T06:10:08.013Z,80
2019-04-12T06:11:06.740Z,80
2019-04-12T06:12:05.311Z,80
2019-04-12T06:13:05.212Z,80
2019-04-12T06:14:02.659Z,85
2019-04-12T06:15:01.280Z,80
2019-04-12T06:15:59.801Z,80
2019-04-12T06:17:01.288Z,85
2019-04-12T06:17:56.932Z,80
2019-04-12T06:18:55.429Z,80
2019-04-12T06:19:54.208Z,85
2019-04-12T06:20:52.873Z,90
2019-04-12T06:21:51.399Z,90
2019-04-12T06:22:50.144Z,85
2019-04-12T06:23:48.859Z,85
2019-04-12T06:24:47.698Z,85
2019-04-12T06:25:46.363Z,80
2019-04-12T06:26:44.902Z,85
2019-04-12T06:27:43.452Z,85
2019-04-12T06:28:42.128Z,85
2019-04-12T06:29:40.749Z,90
2019-04-12T06:30:39.328Z,90
2019-04-12T06:31:38.003Z,90
2019-04-12T06:32:36.588Z,90
2019-04-12T06:33:35.133Z,90
2019-04-12T06:34:33.708Z,95
2019-04-12T06:35:32.325Z,95
2019-04-12T06:36:30.945Z,90
2019-04-12T06:37:29.519Z,95
2019-04-12T06:38:28.331Z,100
2019-04-12T06:39:26.943Z,105
2019-04-12T06:40:25.564Z,105
2019-04-12T06:41:24.156Z,100
2019-04-12T06:42:22.767Z,100
2019-04-12T06:43:21.461Z,110
2019-04-12T06:44:20.163Z,110
2019-04-12T06:45:18.809Z,120
2019-04-12T06:46:17.381Z,115
2019-04-12T06:47:16.262Z,110
2019-04-12T06:48:14.847Z,110
2019-04-12T06:49:13.425Z,105
2019-04-12T06:50:12.037Z,110
2019-04-12T06:51:10.624Z,120
2019-04-12T06:52:09.134Z,110
2019-04-12T06:53:07.814Z,110
2019-04-12T06:54:06.365Z,115
2019-04-12T06:55:04.936Z,115
2019-04-12T06:56:03.496Z,115
2019-04-12T06:57:02.179Z,110
2019-04-12T06:58:00.867Z,105
2019-04-12T06:58:59.608Z,110
2019-04-12T06:59:58.226Z,120
2019-04-12T07:00:56.842Z,110
2019-04-12T07:01:56.410Z,115
2019-04-12T07:02:54.979Z,110
2019-04-12T07:03:56.869Z,110
2019-04-12T07:04:52.261Z,115
2019-04-12T07:05:51.525Z,130
2019-04-12T07:06:50.176Z,130
2019-04-12T07:07:48.809Z,125
2019-04-12T07:08:47.336Z,120
2019-04-12T07:09:45.965Z,115
2019-04-12T07:10:44.666Z,120
2019-04-12T07:11:43.238Z,110
2019-04-12T07:12:41.769Z,115
2019-04-12T07:13:40.360Z,115
2019-04-12T07:14:38.944Z,130
2019-04-12T07:15:37.503Z,125
2019-04-12T07:16:36.159Z,125
2019-04-12T07:17:34.695Z,115
2019-04-12T07:18:33.256Z,110
2019-04-12T07:19:31.893Z,125
2019-04-12T07:20:30.833Z,125
2019-04-12T07:21:29.362Z,115
2019-04-12T07:22:27.957Z,105
2019-04-12T07:23:26.846Z,115
2019-04-12T07:24:25.431Z,105
2019-04-12T07:25:24.049Z,120
2019-04-12T07:26:22.694Z,120
2019-04-12T07:27:21.223Z,130
2019-04-12T07:28:19.791Z,130
2019-04-12T07:29:18.390Z,130
2019-04-12T07:30:16.921Z,135
2019-04-12T07:31:15.529Z,135
2019-04-12T07:32:14.130Z,130
2019-04-12T07:33:12.666Z,125
2019-04-12T07:34:11.208Z,120
2019-04-12T07:35:09.832Z,110
2019-04-12T07:36:08.440Z,120
2019-04-12T07:37:06.992Z,115
2019-04-12T07:38:05.711Z,120
2019-04-12T07:39:04.415Z,115
2019-04-12T07:40:05.584Z,125
2019-04-12T07:41:01.551Z,110
2019-04-12T07:42:00.089Z,110
2019-04-12T07:42:58.670Z,115
2019-04-12T07:43:57.464Z,120
2019-04-12T07:44:56.095Z,125
2019-04-12T07:45:54.706Z,120
2019-04-12T07:46:53.319Z,120
2019-04-12T07:47:51.905Z,120
2019-04-12T07:48:50.508Z,115
2019-04-12T07:49:49.067Z,110
2019-04-12T07:50:47.654Z,110
2019-04-12T07:51:46.311Z,115
2019-04-12T07:52:44.866Z,120
2019-04-12T07:53:43.434Z,120
2019-04-12T07:54:41.968Z,125
2019-04-12T07:55:40.599Z,120
2019-04-12T07:56:39.075Z,115
2019-04-12T07:57:46.717Z,115
2019-04-12T07:58:36.264Z,115
2019-04-12T07:59:34.973Z,120
2019-04-12T08:00:33.560Z,120
2019-04-12T08:01:32.224Z,125
2019-04-12T08:02:30.821Z,120
2019-04-12T08:03:29.420Z,125
2019-04-12T08:04:28.025Z,135
2019-04-12T08:05:26.580Z,125
2019-04-12T08:06:25.210Z,125
2019-04-12T08:07:23.733Z,125
2019-04-12T08:08:22.443Z,125
2019-04-12T08:09:21.143Z,125
2019-04-12T08:10:19.711Z,120
2019-04-12T08:11:18.382Z,125
2019-04-12T08:12:17.055Z,125
2019-04-12T08:13:15.686Z,125
2019-04-12T08:14:14.260Z,125
2019-04-12T08:15:13.766Z,125
2019-04-12T08:16:11.416Z,125
2019-04-12T08:17:11.512Z,120
2019-04-12T08:18:08.795Z,120
2019-04-12T08:19:07.615Z,120
2019-04-12T08:20:06.104Z,120
2019-04-12T08:21:04.668Z,120
2019-04-12T08:22:03.367Z,120
2019-04-12T08:23:01.845Z,125
2019-04-12T08:24:00.396Z,125
2019-04-12T08:24:58.932Z,125
2019-04-12T08:25:57.537Z,135
2019-04-12T08:26:56.107Z,130
2019-04-12T08:27:58.456Z,125
2019-04-12T08:28:53.432Z,125
2019-04-12T08:29:52.184Z,130
2019-04-12T08:30:51.176Z,135
2019-04-12T08:31:49.923Z,130
2019-04-12T08:32:48.703Z,130
2019-04-12T08:33:47.233Z,130
2019-04-12T08:34:45.986Z,125
2019-04-12T08:35:44.547Z,125
2019-04-12T08:36:43.198Z,125
2019-04-12T08:37:41.753Z,125
2019-04-12T08:38:40.439Z,125
2019-04-12T08:39:38.962Z,125
2019-04-12T08:40:37.528Z,125
2019-04-12T08:41:36.268Z,125
2019-04-12T08:42:36.106Z,125
2019-04-12T08:43:33.647Z,120
2019-04-12T08:44:32.270Z,120
2019-04-12T08:45:30.866Z,115
2019-04-12T08:46:29.620Z,115
2019-04-12T08:47:28.424Z,115
2019-04-12T08:48:27.081Z,120
2019-04-12T08:49:25.628Z,120
2019-04-12T08:50:24.304Z,120
2019-04-12T08:51:23.064Z,120
2019-04-12T08:52:21.414Z,120
2019-04-12T08:53:20.407Z,115
2019-04-12T08:54:19.231Z,120
2019-04-12T08:55:18.003Z,125
2019-04-12T08:56:16.419Z,120
2019-04-12T08:57:15.022Z,120
2019-04-12T08:58:13.592Z,120
2019-04-12T08:59:12.434Z,110
2019-04-12T09:00:11.065Z,110
2019-04-12T09:01:10.558Z,105
2019-04-12T09:02:09.142Z,115
2019-04-12T09:03:07.796Z,110
2019-04-12T09:04:06.444Z,105
2019-04-12T09:05:05.107Z,115
2019-04-12T09:06:03.761Z,105
2019-04-12T09:07:02.366Z,105
2019-04-12T09:08:01.017Z,110
2019-04-12T09:09:00.011Z,110
2019-04-12T09:09:58.682Z,115
2019-04-12T09:10:57.268Z,110
2019-04-12T09:11:56.001Z,110
2019-04-12T09:12:54.682Z,105
2019-04-12T09:13:53.223Z,110
2019-04-12T09:14:51.819Z,110
2019-04-12T09:15:50.455Z,110
2019-04-12T09:16:49.084Z,110
2019-04-12T09:17:47.738Z,115
2019-04-12T09:18:46.526Z,120
2019-04-12T09:21:27.045Z,120
2019-04-12T09:22:25.670Z,120
2019-04-12T09:49:52.490Z,100
2019-04-12T09:50:51.118Z,105
2019-04-12T09:51:49.691Z,110
2019-04-12T09:52:48.302Z,105
2019-04-12T09:53:46.953Z,100
2019-04-12T09:54:45.594Z,95
2019-04-12T09:55:44.118Z,95
2019-04-12T09:56:42.661Z,100
2019-04-12T09:57:41.197Z,105
2019-04-12T09:58:39.961Z,105
2019-04-12T09:59:38.672Z,105
2019-04-12T10:00:37.247Z,105
2019-04-12T10:01:35.820Z,100
2019-04-12T10:02:34.395Z,100
2019-04-12T10:03:32.993Z,105
2019-04-12T10:04:31.567Z,100
2019-04-12T10:05:30.102Z,100
2019-04-12T10:06:35.344Z,105
2019-04-12T10:07:35.264Z,115
2019-04-12T10:08:38.690Z,110
2019-04-12T10:09:37.308Z,110
2019-04-12T10:10:37.108Z,110
2019-04-12T10:11:35.833Z,110
2019-04-12T10:12:34.450Z,110
2019-04-12T10:13:34.067Z,115
2019-04-12T10:14:33.132Z,115
2019-04-12T10:15:31.934Z,115
2019-04-12T10:16:32.165Z,110
2019-04-12T10:17:32.323Z,110
2019-04-12T10:18:31.425Z,105
2019-04-12T10:19:30.871Z,105
2019-04-12T10:20:29.530Z,110
2019-04-12T10:21:29.234Z,110
2019-04-12T10:22:28.089Z,110
2019-04-12T10:23:27.011Z,110
2019-04-12T10:24:25.757Z,110
2019-04-12T10:25:24.323Z,110
2019-04-12T10:26:23.068Z,115
2019-04-12T10:27:22.580Z,110
2019-04-12T10:28:22.724Z,115
2019-04-12T10:29:22.913Z,115
2019-04-12T10:30:25.098Z,115
2019-04-12T10:31:24.976Z,120
2019-04-12T10:32:24.040Z,115
2019-04-12T10:33:23.144Z,115
2019-04-12T10:34:22.384Z,115
2019-04-12T10:35:21.263Z,115
2019-04-12T10:36:19.864Z,120
2019-04-12T10:37:18.573Z,110
2019-04-12T10:38:17.122Z,115
2019-04-12T10:39:15.791Z,110
2019-04-12T10:40:14.351Z,115
2019-04-12T10:41:12.962Z,110
2019-04-12T10:42:11.746Z,115
2019-04-12T10:43:10.648Z,115
2019-04-12T10:44:09.203Z,115
2019-04-12T10:45:07.746Z,115
2019-04-12T10:46:07.265Z,115
2019-04-12T10:47:05.806Z,115
2019-04-12T10:48:06.480Z,120
2019-04-12T10:49:05.024Z,110
2019-04-12T10:50:03.619Z,115
2019-04-12T10:51:02.902Z,115
2019-04-12T10:52:02.121Z,115
2019-04-12T10:53:01.106Z,115
2019-04-12T10:53:59.835Z,115
2019-04-12T10:54:58.998Z,115
2019-04-12T10:56:01.098Z,110
2019-04-12T10:56:59.643Z,110
2019-04-12T10:57:58.428Z,105
2019-04-12T10:59:02.620Z,105
2019-04-12T10:59:55.758Z,100
2019-04-12T11:00:54.481Z,100
2019-04-12T11:01:53.099Z,100
2019-04-12T11:02:51.682Z,100
2019-04-12T11:03:50.589Z,100
2019-04-12T11:04:49.184Z,95
2019-04-12T11:05:47.843Z,95
2019-04-12T11:06:46.471Z,95
2019-04-12T11:07:45.064Z,100
2019-04-12T11:08:44.450Z,105
2019-04-12T11:09:43.173Z,95
2019-04-12T11:10:41.907Z,95
2019-04-12T11:11:40.571Z,90
2019-04-12T11:12:39.141Z,90
2019-04-12T11:13:37.731Z,90
2019-04-12T11:14:36.574Z,95
2019-04-12T11:15:35.153Z,105
2019-04-12T11:16:33.867Z,100
2019-04-12T11:18:56.796Z,95
2019-04-12T11:21:30.759Z,95
2019-04-12T11:24:29.887Z,100
2019-04-12T11:27:10.632Z,95
2019-04-12T11:28:09.214Z,95
2019-04-12T11:29:16.579Z,90
2019-04-12T11:30:06.721Z,90
2019-04-12T11:31:05.194Z,90
2019-04-12T11:32:03.803Z,95
2019-04-12T11:33:02.462Z,100
2019-04-12T11:34:01.033Z,100
2019-04-12T11:34:59.668Z,90
2019-04-12T11:35:58.420Z,90
2019-04-12T11:36:57.078Z,90
2019-04-12T11:51:30.799Z,100
2019-04-12T11:52:29.355Z,105
2019-04-12T11:53:28.136Z,105
2019-04-12T11:54:26.745Z,100
2019-04-12T11:55:25.318Z,95
2019-04-12T11:56:25.985Z,95
2019-04-12T11:57:24.836Z,95
2019-04-12T12:00:05.131Z,95
2019-04-12T12:01:05.119Z,100
2019-04-12T12:02:03.661Z,95
2019-04-12T12:04:44.364Z,90
2019-04-12T12:07:49.215Z,85
2019-04-12T12:08:35.747Z,85
2019-04-12T12:09:34.508Z,90
2019-04-12T12:10:33.191Z,85
2019-04-12T12:11:33.245Z,85
2019-04-12T12:34:15.023Z,90
2019-04-12T12:36:48.969Z,80
2019-04-12T12:37:48.064Z,80
2019-04-12T12:43:13.196Z,80
2019-04-12T12:44:16.324Z,80
2019-04-12T12:45:15.269Z,80
2019-04-12T12:46:13.782Z,80
2019-04-12T12:48:37.470Z,85
2019-04-12T12:49:37.503Z,80
2019-04-12T12:50:36.066Z,80
2019-04-12T12:51:35.022Z,80
2019-04-12T12:55:40.062Z,100
2019-04-12T12:56:39.055Z,90
2019-04-12T13:02:41.760Z,90
2019-04-12T13:03:40.534Z,90
2019-04-12T13:04:39.068Z,85
2019-04-12T13:05:37.721Z,85
2019-04-12T13:06:36.770Z,85
2019-04-12T13:12:05.315Z,95
2019-04-12T13:13:03.878Z,95
2019-04-12T13:14:02.505Z,95
2019-04-12T13:15:01.188Z,95
2019-04-12T13:15:59.979Z,90
2019-04-12T13:16:58.700Z,95
2019-04-12T13:17:57.383Z,95
2019-04-12T13:18:55.946Z,100
2019-04-12T13:19:54.545Z,105
2019-04-12T13:20:53.258Z,105
2019-04-12T13:21:51.861Z,105
2019-04-12T13:22:50.583Z,110
2019-04-12T13:23:49.073Z,100
2019-04-12T13:24:47.666Z,100
2019-04-12T13:25:46.330Z,100
2019-04-12T13:26:45.017Z,100
2019-04-12T13:27:43.551Z,105
2019-04-12T13:31:22.446Z,100
2019-04-12T13:32:21.013Z,95
2019-04-12T13:33:19.578Z,95
2019-04-12T13:34:18.334Z,95
2019-04-12T13:36:58.969Z,100
2019-04-12T13:41:20.420Z,100
2019-04-12T13:42:19.016Z,100
2019-04-12T14:06:00.936Z,100
2019-04-12T14:06:59.895Z,100
2019-04-12T14:07:58.647Z,95
2019-04-12T14:08:57.812Z,95
2019-04-12T14:09:56.356Z,90
2019-04-12T14:10:54.931Z,85
2019-04-12T14:11:53.965Z,85
2019-04-12T14:13:01.928Z,85
2019-04-12T14:13:54.625Z,85
2019-04-12T14:14:53.820Z,85
2019-04-12T14:15:53.095Z,85
2019-04-12T14:16:52.281Z,85
2019-04-12T14:17:52.286Z,85
2019-04-12T14:18:52.377Z,80
2019-04-12T14:19:51.204Z,80
2019-04-12T14:20:50.271Z,80
2019-04-12T14:21:48.800Z,80
2019-04-12T14:22:47.360Z,80
2019-04-12T14:23:46.192Z,80
2019-04-12T14:24:45.276Z,80
2019-04-12T14:25:44.172Z,75
2019-04-12T14:26:42.871Z,75
2019-04-12T14:27:41.616Z,75
2019-04-12T14:28:40.201Z,75
2019-04-12T14:29:38.974Z,75
2019-04-12T14:30:37.515Z,75
2019-04-12T14:31:36.123Z,75
2019-04-12T14:32:34.785Z,75
2019-04-12T14:33:33.341Z,75
2019-04-12T14:34:32.052Z,75
2019-04-12T14:35:30.910Z,75
2019-04-12T14:36:29.517Z,75
2019-04-12T14:37:28.102Z,75
2019-04-12T14:38:26.689Z,75
2019-04-12T14:39:25.308Z,75
2019-04-12T14:40:23.948Z,75
2019-04-12T14:41:22.813Z,75
2019-04-12T14:42:21.378Z,75
2019-04-12T14:43:20.038Z,75
2019-04-12T14:44:18.603Z,75
2019-04-12T14:45:17.230Z,75
2019-04-12T14:46:15.727Z,75
2019-04-12T14:47:14.371Z,75
2019-04-12T14:48:12.914Z,70
2019-04-12T14:49:11.510Z,70
2019-04-12T14:50:10.170Z,70
2019-04-12T14:51:08.977Z,70
2019-04-12T14:52:07.696Z,70
2019-04-12T14:53:06.258Z,70
2019-04-12T14:54:04.776Z,70
2019-04-12T14:55:05.634Z,70
2019-04-12T14:56:04.489Z,70
2019-04-12T14:57:03.188Z,65
2019-04-12T14:58:01.873Z,65
2019-04-12T14:59:00.590Z,65
2019-04-12T14:59:59.158Z,65
2019-04-12T15:01:08.921Z,65
2019-04-12T15:01:56.558Z,65
2019-04-12T15:02:55.290Z,65
2019-04-12T15:03:53.915Z,65
2019-04-12T15:04:52.471Z,65
2019-04-12T15:05:51.166Z,65
2019-04-12T15:06:50.097Z,65
2019-04-12T15:07:48.878Z,65
2019-04-12T15:08:47.585Z,65
2019-04-12T15:11:27.922Z,60
2019-04-12T15:12:26.573Z,60
2019-04-12T15:13:25.211Z,60
2019-04-12T15:14:23.824Z,60
2019-04-12T15:15:22.421Z,60
2019-04-12T15:16:21.243Z,60
2019-04-12T15:17:19.648Z,60
2019-04-12T15:18:18.364Z,60
2019-04-12T15:19:17.250Z,60
2019-04-12T15:20:16.326Z,60
2019-04-12T15:21:15.029Z,60
2019-04-12T15:22:13.657Z,60
2019-04-12T15:23:12.286Z,55
2019-04-12T15:24:12.127Z,60
2019-04-12T15:25:10.648Z,60
2019-04-12T15:26:09.322Z,60
2019-04-12T15:27:08.236Z,60
2019-04-12T15:28:07.080Z,55
2019-04-12T15:29:05.612Z,60
2019-04-12T15:30:04.214Z,55
2019-04-12T15:31:02.811Z,55
2019-04-12T15:32:01.457Z,55
2019-04-12T15:32:59.995Z,55
2019-04-12T15:33:58.816Z,55
2019-04-12T15:34:57.369Z,50
2019-04-12T15:35:56.021Z,50
2019-04-12T15:36:54.740Z,55
2019-04-12T15:37:54.131Z,55
2019-04-12T15:38:52.243Z,55
2019-04-12T15:40:04.858Z,55
2019-04-12T15:41:03.440Z,55
2019-04-12T15:42:02.075Z,55
2019-04-12T15:43:01.094Z,50
2019-04-12T15:43:59.727Z,50
2019-04-12T15:44:58.423Z,50
2019-04-12T15:45:57.026Z,50
2019-04-12T15:46:55.870Z,50
2019-04-12T15:47:54.773Z,50
2019-04-12T15:48:53.887Z,50
2019-04-12T15:49:52.476Z,50
2019-04-12T15:50:51.269Z,50
2019-04-12T15:51:50.064Z,50
2019-04-12T15:52:48.476Z,50
2019-04-12T15:53:47.091Z,50
2019-04-12T15:54:45.651Z,45
2019-04-12T15:55:44.163Z,45
2019-04-12T15:56:44.758Z,45
2019-04-12T15:57:43.284Z,45
2019-04-12T15:58:41.933Z,45
2019-04-12T15:59:40.815Z,45
2019-04-12T16:00:39.387Z,45
2019-04-12T16:01:37.986Z,45
2019-04-12T16:02:36.704Z,45
2019-04-12T16:03:35.264Z,45
2019-04-12T16:04:33.784Z,45
2019-04-12T16:05:32.716Z,45
2019-04-12T16:06:31.244Z,45
2019-04-12T16:07:29.815Z,45
2019-04-12T16:08:28.431Z,45
2019-04-12T16:09:27.080Z,40
2019-04-12T16:10:25.673Z,40
2019-04-12T16:11:24.310Z,40
2019-04-12T16:12:22.908Z,40
2019-04-12T16:13:21.625Z,40
2019-04-12T16:14:20.233Z,40
2019-04-12T16:15:18.911Z,40
2019-04-12T16:16:17.508Z,40
2019-04-12T16:17:16.087Z,45
2019-04-12T16:18:14.943Z,40
2019-04-12T16:19:13.562Z,40
2019-04-12T16:20:12.324Z,40
2019-04-12T16:21:11.051Z,40
2019-04-12T16:22:09.640Z,40
2019-04-12T16:23:08.682Z,40
2019-04-12T16:24:07.335Z,40
2019-04-12T16:25:05.973Z,40
2019-04-12T16:26:04.764Z,40
2019-04-12T16:27:03.349Z,40
2019-04-12T16:28:01.981Z,40
2019-04-12T16:29:00.614Z,40
2019-04-12T16:29:59.188Z,35
2019-04-12T16:30:57.815Z,35
2019-04-12T16:31:56.889Z,35
2019-04-12T16:32:55.516Z,35
2019-04-12T16:33:54.234Z,35
2019-04-12T16:34:52.837Z,35
2019-04-12T16:35:51.494Z,30
2019-04-12T16:36:50.180Z,30
2019-04-12T16:37:49.561Z,30
2019-04-12T16:38:48.442Z,30
2019-04-12T16:39:47.115Z,30
2019-04-12T16:40:45.726Z,30
2019-04-12T16:41:44.258Z,30
2019-04-12T16:42:42.839Z,30
2019-04-12T16:43:41.380Z,30
2019-04-12T16:44:40.135Z,30
2019-04-12T16:45:38.970Z,30
2019-04-12T16:46:37.573Z,30
2019-04-12T16:47:36.248Z,30
2019-04-12T16:48:34.914Z,30
2019-04-12T16:49:33.451Z,25
2019-04-12T16:50:32.069Z,25
2019-04-12T16:51:30.746Z,25
2019-04-12T16:52:29.388Z,25
2019-04-12T16:53:28.069Z,25
2019-04-12T16:54:26.827Z,25
2019-04-12T16:55:25.403Z,25
2019-04-12T16:56:24.050Z,25
2019-04-12T16:57:22.628Z,25
2019-04-12T16:58:21.246Z,25
2019-04-12T16:59:19.831Z,25
2019-04-12T17:00:18.476Z,25
2019-04-12T17:01:17.049Z,25
2019-04-12T17:02:15.598Z,20
2019-04-12T17:03:14.237Z,20
2019-04-12T17:04:13.039Z,20
2019-04-12T17:05:11.671Z,20
2019-04-12T17:06:10.567Z,20
2019-04-12T17:07:09.182Z,20
2019-04-12T17:08:07.873Z,20
2019-04-12T17:09:06.547Z,20
2019-04-12T17:10:05.146Z,20
2019-04-12T17:11:03.827Z,20
2019-04-12T17:12:02.437Z,20
2019-04-12T17:13:01.055Z,20
2019-04-12T17:13:59.639Z,15
2019-04-12T17:14:58.520Z,15
2019-04-12T17:18:06.013Z,15
2019-04-12T17:19:04.555Z,15
2019-04-12T17:20:03.121Z,15
2019-04-12T17:21:01.743Z,15
2019-04-12T17:22:00.458Z,15
2019-04-12T17:22:59.197Z,15
2019-04-12T17:23:57.838Z,15
2019-04-12T17:25:05.775Z,15
2019-04-12T17:25:55.288Z,15
2019-04-12T17:26:53.990Z,10
2019-04-12T17:27:52.844Z,10
2019-04-12T17:28:51.422Z,10
2019-04-12T17:29:50.046Z,10
2019-04-12T17:30:48.728Z,10
2019-04-12T17:31:49.141Z,10